Home

Weather

KSLC Current Conditions

KSLC 222054Z 35015KT 10SM SCT110 BKN140 BKN180 28/13 A3023 RMK AO2 SLP177 TCU DSNT E-SE T02830128 50003

KSLC Aviation Forecast

TAF AMD KSLC 222050Z 2221/2324 34014G20KT P6SM BKN100 BKN150 FM230100 01010KT P6SM FEW110 BKN150 FM230600 18007KT P6SM FEW150


83° F
Mostly Cloudy
Mostly Cloudy

Mostly Cloudy
Sunday
Mostly Cloudy
High 88°/Low 68°
20%
Clear
Monday
Clear
High 95°/Low 72°
0%
Clear
Tuesday
Clear
High 97°/Low 72°
20%
Partly Cloudy
Wednesday
Partly Cloudy
High 96°/Low 71°
0%
Clear
Thursday
Clear
High 95°/Low 71°
10%
Clear
Friday
Clear
High 95°/Low 70°
20%